Time;durP1;ratioP1;P1;durP2;ratioP2;P2;SDS_P1;SDS_P2;PMS_P1;PMS_P2;Temp;Humidity;BMP_temperature;BMP_pressure;BME280_temperature;BME280_humidity;BME280_pressure;Samples;Min_cycle;Max_cycle;Signal;HPM_P1;HPM_P2
2023/04/14 00:00:11;;;;;;;6.10;2.13;;;7.80;31.30;;;;;;5086756;28;20852;-67
2023/04/14 00:02:38;;;;;;;7.60;3.03;;;7.80;31.40;;;;;;5086387;28;20521;-67
2023/04/14 00:05:07;;;;;;;8.60;2.67;;;7.80;31.90;;;;;;5081196;28;20460;-68
2023/04/14 00:07:33;;;;;;;6.33;2.90;;;7.80;31.30;;;;;;5076248;28;20469;-67
2023/04/14 00:10:00;;;;;;;7.53;2.40;;;7.70;31.40;;;;;;5078298;28;20483;-67
2023/04/14 00:12:27;;;;;;;5.60;2.50;;;7.70;31.50;;;;;;5077113;28;20507;-68
2023/04/14 00:14:53;;;;;;;6.50;2.97;;;7.60;31.40;;;;;;5080368;28;20492;-68
2023/04/14 00:17:22;;;;;;;6.20;2.50;;;7.60;32.10;;;;;;5074635;28;20464;-68
2023/04/14 00:19:48;;;;;;;6.93;2.47;;;7.60;31.70;;;;;;5082585;28;20494;-64
2023/04/14 00:22:15;;;;;;;7.37;2.53;;;7.60;31.60;;;;;;5077621;28;20463;-64
2023/04/14 00:24:42;;;;;;;7.80;2.30;;;7.50;31.60;;;;;;5084141;28;20944;-68
2023/04/14 00:27:09;;;;;;;5.83;2.53;;;7.50;31.60;;;;;;5079150;28;20578;-68
2023/04/14 00:29:37;;;;;;;6.13;2.20;;;7.50;31.80;;;;;;5075606;28;20540;-68
2023/04/14 00:32:04;;;;;;;5.67;2.10;;;7.50;31.80;;;;;;5082491;28;20830;-68
2023/04/14 00:34:32;;;;;;;6.70;2.33;;;7.50;31.80;;;;;;5080549;28;20909;-67
2023/04/14 00:36:59;;;;;;;5.70;2.70;;;7.40;31.70;;;;;;5083058;28;20948;-68
2023/04/14 00:39:26;;;;;;;7.93;2.40;;;7.40;31.80;;;;;;5078514;28;20940;-68
2023/04/14 00:41:52;;;;;;;6.57;2.30;;;7.40;31.80;;;;;;5076912;28;22480;-68
2023/04/14 00:44:19;;;;;;;5.33;2.23;;;7.40;31.90;;;;;;5080630;28;20464;-67
2023/04/14 00:46:46;;;;;;;6.47;2.70;;;7.40;32.00;;;;;;5087095;28;20458;-68
2023/04/14 00:49:13;;;;;;;7.27;2.40;;;7.30;32.00;;;;;;5084866;28;20858;-68
2023/04/14 00:51:42;;;;;;;5.80;2.20;;;7.40;32.20;;;;;;5078083;28;21066;-68
2023/04/14 00:54:10;;;;;;;6.73;2.60;;;7.30;32.20;;;;;;5082326;28;20527;-68
2023/04/14 00:56:37;;;;;;;8.53;2.63;;;7.30;32.40;;;;;;5074847;28;20468;-64
2023/04/14 00:59:06;;;;;;;9.23;3.47;;;7.30;32.70;;;;;;5076159;28;20465;-67
2023/04/14 01:01:35;;;;;;;8.77;3.07;;;7.30;32.80;;;;;;5081529;28;20467;-68
2023/04/14 01:04:04;;;;;;;5.27;2.40;;;7.30;32.90;;;;;;5081961;28;20822;-68
2023/04/14 01:06:32;;;;;;;8.90;2.93;;;7.30;33.20;;;;;;5077054;28;20538;-68
2023/04/14 01:09:00;;;;;;;5.73;2.83;;;7.30;33.10;;;;;;5082860;28;20460;-68
2023/04/14 01:11:36;;;;;;;7.87;2.60;;;7.40;33.20;;;;;;5081016;28;20483;-68
2023/04/14 01:14:09;;;;;;;7.53;2.40;;;7.30;33.20;;;;;;5075288;28;20959;-68
2023/04/14 01:16:39;;;;;;;5.50;2.40;;;7.40;33.20;;;;;;5083438;28;21160;-68
2023/04/14 01:19:20;;;;;;;5.13;2.17;;;7.40;33.00;;;;;;5083982;28;20464;-68
2023/04/14 01:21:51;;;;;;;8.10;2.93;;;7.40;33.10;;;;;;5082270;28;20527;-68
2023/04/14 01:24:47;;;;;;;6.23;2.30;;;7.40;33.00;;;;;;5081351;28;20465;-68
2023/04/14 01:27:31;;;;;;;7.37;2.77;;;7.40;33.10;;;;;;5075445;28;20453;-68
2023/04/14 01:30:10;;;;;;;5.43;2.47;;;7.40;33.70;;;;;;5082021;28;20476;-69
2023/04/14 01:32:43;;;;;;;8.70;2.70;;;7.40;33.20;;;;;;5078043;28;20472;-64
2023/04/14 01:35:12;;;;;;;7.20;3.10;;;7.40;33.20;;;;;;5075657;28;20916;-67
2023/04/14 01:37:44;;;;;;;7.50;2.90;;;7.40;33.10;;;;;;5083274;28;20575;-68
2023/04/14 01:40:16;;;;;;;5.73;2.57;;;7.40;33.00;;;;;;5080183;28;20493;-68
2023/04/14 01:42:46;;;;;;;5.90;2.83;;;7.40;32.90;;;;;;5083445;28;20455;-67
2023/04/14 01:45:18;;;;;;;8.90;2.80;;;7.40;33.00;;;;;;5087455;28;21082;-68
2023/04/14 01:47:47;;;;;;;6.40;2.90;;;7.30;33.10;;;;;;5086856;28;20464;-68
2023/04/14 01:50:16;;;;;;;8.30;3.10;;;7.30;33.10;;;;;;5087182;28;20491;-68
2023/04/14 01:52:46;;;;;;;7.80;3.40;;;7.30;33.30;;;;;;5087109;28;20487;-68
2023/04/14 01:55:16;;;;;;;6.37;2.90;;;7.30;33.10;;;;;;5079361;28;20488;-67
2023/04/14 01:57:45;;;;;;;6.80;3.07;;;7.30;33.30;;;;;;5084245;28;20938;-68
2023/04/14 02:00:14;;;;;;;7.80;2.63;;;7.20;33.20;;;;;;5074485;28;20497;-68
2023/04/14 02:02:42;;;;;;;5.40;2.90;;;7.20;33.10;;;;;;5080978;28;20475;-68
2023/04/14 02:05:11;;;;;;;8.23;3.73;;;7.20;33.20;;;;;;5076932;28;20472;-68
2023/04/14 02:07:40;;;;;;;7.90;3.50;;;7.20;33.00;;;;;;5087647;28;20460;-67
2023/04/14 02:10:09;;;;;;;8.67;3.50;;;7.20;33.10;;;;;;5088835;28;20561;-67
2023/04/14 02:12:37;;;;;;;8.93;3.33;;;7.10;33.20;;;;;;5084169;28;20552;-67
2023/04/14 02:15:06;;;;;;;7.27;3.50;;;7.10;33.20;;;;;;5083071;28;20457;-67
2023/04/14 02:17:34;;;;;;;9.40;3.13;;;7.10;33.30;;;;;;5086922;28;20468;-67
2023/04/14 02:20:02;;;;;;;7.70;3.17;;;7.10;33.20;;;;;;5075673;28;20500;-67
2023/04/14 02:22:30;;;;;;;8.77;3.03;;;7.00;33.20;;;;;;5082075;28;20455;-67
2023/04/14 02:24:56;;;;;;;6.77;3.13;;;7.00;33.20;;;;;;5087526;28;20464;-68
2023/04/14 02:27:30;;;;;;;10.23;3.33;;;7.00;33.30;;;;;;5082143;28;20456;-67
2023/04/14 02:29:58;;;;;;;8.90;3.27;;;7.00;33.40;;;;;;5088662;28;20511;-68
2023/04/14 02:32:29;;;;;;;8.03;3.03;;;7.00;33.50;;;;;;5083988;28;20480;-67
2023/04/14 02:35:04;;;;;;;7.03;3.27;;;6.90;33.80;;;;;;5079049;28;21200;-67
2023/04/14 02:37:36;;;;;;;6.10;3.00;;;6.90;34.20;;;;;;5086582;28;20464;-68
2023/04/14 02:40:12;;;;;;;7.57;2.73;;;6.90;34.30;;;;;;5081123;28;20971;-68
2023/04/14 02:42:43;;;;;;;6.80;2.90;;;6.90;34.60;;;;;;5081666;28;20464;-67
2023/04/14 02:45:14;;;;;;;6.50;2.60;;;6.90;34.50;;;;;;5083075;28;20846;-68
2023/04/14 02:47:45;;;;;;;7.53;2.83;;;6.90;34.50;;;;;;5082170;28;20465;-68
2023/04/14 02:50:15;;;;;;;7.10;2.80;;;6.90;34.50;;;;;;5083951;28;20491;-67
2023/04/14 02:52:46;;;;;;;5.50;2.70;;;6.90;34.50;;;;;;5084176;28;20479;-67
2023/04/14 02:55:13;;;;;;;7.00;2.80;;;6.90;34.60;;;;;;5076699;28;20461;-67
2023/04/14 02:57:41;;;;;;;6.20;3.00;;;7.00;34.40;;;;;;5080326;28;20472;-67
2023/04/14 03:00:09;;;;;;;7.43;2.60;;;6.90;34.30;;;;;;5076008;28;20488;-68
2023/04/14 03:02:38;;;;;;;6.10;2.47;;;6.90;34.90;;;;;;5083196;28;20506;-68
2023/04/14 03:05:06;;;;;;;6.40;2.90;;;6.90;34.40;;;;;;5078643;28;20551;-67
2023/04/14 03:07:34;;;;;;;6.70;2.93;;;6.90;34.40;;;;;;5079942;28;20544;-67
2023/04/14 03:10:02;;;;;;;7.07;3.43;;;6.90;34.40;;;;;;5080176;28;20496;-68
2023/04/14 03:12:30;;;;;;;6.07;2.50;;;6.90;34.40;;;;;;5077555;28;20481;-67
2023/04/14 03:14:58;;;;;;;7.10;3.53;;;6.90;34.20;;;;;;5088367;28;20475;-68
2023/04/14 03:17:25;;;;;;;9.40;3.17;;;6.90;34.20;;;;;;5085851;28;20456;-68
2023/04/14 03:19:54;;;;;;;6.50;3.27;;;6.90;34.20;;;;;;5082759;28;20487;-68
2023/04/14 03:22:23;;;;;;;10.47;3.50;;;6.80;34.10;;;;;;5077401;28;21118;-68
2023/04/14 03:24:50;;;;;;;10.20;3.00;;;6.80;34.10;;;;;;5083538;28;20464;-69
2023/04/14 03:27:21;;;;;;;6.70;2.97;;;6.70;34.00;;;;;;5074488;28;20526;-68
2023/04/14 03:29:51;;;;;;;10.90;3.67;;;6.70;34.10;;;;;;5085602;28;21071;-68
2023/04/14 03:32:19;;;;;;;6.37;3.10;;;6.70;34.10;;;;;;5084799;28;20480;-68
2023/04/14 03:34:48;;;;;;;9.43;4.20;;;6.60;34.10;;;;;;5082182;28;20538;-68
2023/04/14 03:37:17;;;;;;;7.77;3.70;;;6.60;34.10;;;;;;5078046;28;20465;-68
2023/04/14 03:39:48;;;;;;;6.27;3.40;;;6.60;34.30;;;;;;5082565;28;20487;-68
2023/04/14 03:42:15;;;;;;;8.07;3.70;;;6.60;34.40;;;;;;5082832;28;20954;-67
2023/04/14 03:44:48;;;;;;;8.80;3.60;;;6.50;34.40;;;;;;5083944;28;20467;-68
2023/04/14 03:47:16;;;;;;;8.87;3.50;;;6.50;35.10;;;;;;5083180;28;20456;-68
2023/04/14 03:49:45;;;;;;;8.20;3.73;;;6.50;34.60;;;;;;5078317;28;20852;-68
2023/04/14 03:52:14;;;;;;;9.07;3.50;;;6.50;34.70;;;;;;5084884;28;20472;-68
2023/04/14 03:54:43;;;;;;;6.23;3.07;;;6.50;34.70;;;;;;5079980;28;20464;-68
2023/04/14 03:57:13;;;;;;;7.73;3.77;;;6.50;34.60;;;;;;5080897;28;20470;-65
2023/04/14 03:59:41;;;;;;;6.67;3.40;;;6.40;34.60;;;;;;5088184;28;20491;-65
2023/04/14 04:02:10;;;;;;;5.70;3.00;;;6.40;34.70;;;;;;5079788;28;20465;-65
2023/04/14 04:04:37;;;;;;;9.03;3.53;;;6.40;34.80;;;;;;5078276;28;20460;-65
2023/04/14 04:07:04;;;;;;;9.87;3.40;;;6.40;34.90;;;;;;5078538;28;20460;-65
2023/04/14 04:09:33;;;;;;;5.80;3.10;;;6.30;35.10;;;;;;5088336;28;20459;-66
2023/04/14 04:12:02;;;;;;;8.13;4.13;;;6.30;35.20;;;;;;5084293;28;20479;-66
2023/04/14 04:14:30;;;;;;;10.43;3.50;;;6.30;35.40;;;;;;5082758;28;21054;-66
2023/04/14 04:17:00;;;;;;;6.37;3.20;;;6.30;35.50;;;;;;5086219;28;20460;-66
2023/04/14 04:24:36;;;;;;;8.43;3.47;;;6.30;35.30;;;;;;5376589;22;20752;-67
2023/04/14 04:27:04;;;;;;;9.40;3.20;;;6.40;35.30;;;;;;5097912;27;20942;-66
2023/04/14 04:29:31;;;;;;;8.77;3.53;;;6.40;35.30;;;;;;5098062;28;20514;-65
2023/04/14 04:31:58;;;;;;;7.30;3.67;;;6.40;35.20;;;;;;5097162;27;20467;-67
2023/04/14 04:34:26;;;;;;;9.10;3.37;;;6.40;35.30;;;;;;5098944;27;20494;-66
2023/04/14 04:36:53;;;;;;;6.90;3.53;;;6.30;35.30;;;;;;5100971;28;20456;-66
2023/04/14 04:39:20;;;;;;;7.90;4.10;;;6.30;35.40;;;;;;5127819;22;20486;-67
2023/04/14 04:41:50;;;;;;;8.50;3.77;;;6.30;35.50;;;;;;5115672;27;20456;-67
2023/04/14 04:44:17;;;;;;;11.90;4.23;;;6.30;35.40;;;;;;5120895;27;20541;-67
2023/04/14 04:46:51;;;;;;;7.90;3.63;;;6.30;35.30;;;;;;5123437;27;20574;-67
2023/04/14 04:49:18;;;;;;;9.53;3.70;;;6.30;35.40;;;;;;5116374;27;20461;-68
2023/04/14 04:51:45;;;;;;;7.70;3.37;;;6.30;35.30;;;;;;5114475;27;20494;-67
2023/04/14 04:54:12;;;;;;;8.47;3.60;;;6.30;35.20;;;;;;5123123;27;20490;-67
2023/04/14 04:56:38;;;;;;;6.70;3.30;;;6.30;35.20;;;;;;5122014;27;20694;-67
2023/04/14 04:59:07;;;;;;;7.67;3.20;;;6.40;35.20;;;;;;5121646;27;20959;-67
2023/04/14 05:01:34;;;;;;;7.53;3.33;;;6.40;35.20;;;;;;5114359;27;20999;-67
2023/04/14 05:04:01;;;;;;;7.20;2.70;;;6.40;35.20;;;;;;5114105;27;20474;-67
2023/04/14 05:06:28;;;;;;;7.57;2.90;;;6.50;35.00;;;;;;5124114;27;20470;-66
2023/04/14 05:08:55;;;;;;;9.77;3.57;;;6.50;34.90;;;;;;5124997;27;20455;-66
2023/04/14 05:11:22;;;;;;;8.47;3.30;;;6.60;34.80;;;;;;5114529;27;20482;-66
2023/04/14 05:13:49;;;;;;;9.63;3.23;;;6.60;34.70;;;;;;5112504;27;20491;-66
2023/04/14 05:16:17;;;;;;;9.90;3.10;;;6.70;34.70;;;;;;5121928;27;20466;-66
2023/04/14 05:18:43;;;;;;;12.30;3.43;;;6.70;34.50;;;;;;5118274;27;20474;-66
2023/04/14 05:21:12;;;;;;;7.87;3.00;;;6.70;34.40;;;;;;5111299;28;22322;-66
2023/04/14 05:23:40;;;;;;;8.87;3.20;;;6.80;34.30;;;;;;5120013;28;20570;-66
2023/04/14 05:26:08;;;;;;;7.03;3.00;;;6.80;34.30;;;;;;5120670;28;20458;-68
2023/04/14 05:28:35;;;;;;;8.57;3.67;;;6.90;34.10;;;;;;5123379;27;20462;-68
2023/04/14 05:31:02;;;;;;;9.20;3.50;;;6.90;34.00;;;;;;5120264;28;20853;-69
2023/04/14 05:33:30;;;;;;;12.23;5.10;;;6.90;34.00;;;;;;5117526;28;20482;-68
2023/04/14 05:35:57;;;;;;;8.50;3.53;;;6.90;34.00;;;;;;5116541;28;21035;-69
2023/04/14 05:38:23;;;;;;;10.10;4.03;;;7.00;34.00;;;;;;5106327;27;20500;-70
2023/04/14 05:40:50;;;;;;;10.73;4.80;;;7.00;34.20;;;;;;5096875;22;21114;-74
2023/04/14 05:43:17;;;;;;;8.57;3.90;;;7.10;34.10;;;;;;5062020;28;20464;-71
2023/04/14 05:45:45;;;;;;;7.37;3.33;;;7.20;33.90;;;;;;5080829;28;21243;-71
2023/04/14 05:48:13;;;;;;;9.60;3.63;;;7.20;33.90;;;;;;5071648;28;20453;-72
2023/04/14 05:50:41;;;;;;;9.33;4.00;;;7.30;33.80;;;;;;5081653;28;20900;-74
2023/04/14 05:53:08;;;;;;;16.97;4.57;;;7.30;33.60;;;;;;5081942;28;21062;-70
2023/04/14 05:55:35;;;;;;;8.50;3.43;;;7.40;33.50;;;;;;5087034;28;20842;-71
2023/04/14 05:58:01;;;;;;;12.23;3.80;;;7.40;33.50;;;;;;5130946;22;20585;-71
2023/04/14 06:00:29;;;;;;;10.70;3.90;;;7.50;33.40;;;;;;5121815;27;20478;-72
2023/04/14 06:02:55;;;;;;;9.53;3.63;;;7.60;33.20;;;;;;5116688;27;20462;-73
2023/04/14 06:05:23;;;;;;;11.53;4.27;;;7.60;33.10;;;;;;5120429;27;20459;-73
2023/04/14 06:07:52;;;;;;;9.17;3.63;;;7.70;33.70;;;;;;5134840;27;20458;-72
2023/04/14 06:10:19;;;;;;;16.90;4.43;;;7.80;33.00;;;;;;5122474;27;21004;-73
2023/04/14 06:12:45;;;;;;;8.60;4.00;;;7.90;32.80;;;;;;5117270;27;20478;-72
2023/04/14 06:15:12;;;;;;;9.13;3.90;;;8.00;32.70;;;;;;5118063;27;20539;-74
2023/04/14 06:17:39;;;;;;;8.90;4.27;;;8.10;32.20;;;;;;5131956;27;20458;-72
2023/04/14 06:20:07;;;;;;;10.20;3.67;;;8.20;31.80;;;;;;5119801;27;20462;-71
2023/04/14 06:22:34;;;;;;;8.40;2.90;;;8.30;31.60;;;;;;5118262;27;20458;-71
2023/04/14 06:25:02;;;;;;;11.13;3.73;;;8.50;30.70;;;;;;5119383;27;20465;-70
2023/04/14 06:27:29;;;;;;;8.50;3.43;;;8.60;30.40;;;;;;5132462;27;20462;-69
2023/04/14 06:29:58;;;;;;;9.73;3.50;;;8.80;29.30;;;;;;5124497;27;20557;-70
2023/04/14 06:32:25;;;;;;;9.57;3.20;;;9.00;28.70;;;;;;5117730;27;20488;-70
2023/04/14 06:34:52;;;;;;;13.80;3.07;;;9.10;28.50;;;;;;5111944;27;20474;-70
2023/04/14 06:37:18;;;;;;;8.73;3.00;;;9.30;28.50;;;;;;5119245;27;20464;-70
2023/04/14 06:39:45;;;;;;;8.33;3.63;;;9.50;28.00;;;;;;5124223;27;20465;-69
2023/04/14 06:42:14;;;;;;;8.87;3.07;;;9.80;27.20;;;;;;5121914;27;20478;-70
2023/04/14 06:44:41;;;;;;;9.73;3.50;;;10.10;26.10;;;;;;5123372;27;20465;-70
2023/04/14 06:47:07;;;;;;;16.30;3.53;;;10.40;25.20;;;;;;5128965;27;20465;-70
2023/04/14 06:49:35;;;;;;;7.97;3.00;;;10.60;24.10;;;;;;5122023;27;20468;-70
2023/04/14 06:52:02;;;;;;;8.90;3.30;;;10.90;23.80;;;;;;5129712;27;20577;-70
2023/04/14 06:54:31;;;;;;;9.33;3.37;;;11.10;22.60;;;;;;5128606;27;20488;-70
2023/04/14 06:56:58;;;;;;;8.83;3.60;;;11.40;21.40;;;;;;5136077;27;20458;-72
2023/04/14 06:59:28;;;;;;;8.23;3.00;;;11.40;21.00;;;;;;5126448;27;20467;-70
2023/04/14 07:01:57;;;;;;;15.13;3.20;;;11.40;20.70;;;;;;5116079;27;20471;-71
2023/04/14 07:04:24;;;;;;;8.67;2.80;;;11.50;20.50;;;;;;5126514;27;20454;-70
2023/04/14 07:06:50;;;;;;;8.10;2.73;;;11.50;19.60;;;;;;5120446;27;20469;-73
2023/04/14 07:09:18;;;;;;;9.33;2.50;;;11.40;18.10;;;;;;5130867;27;20506;-72
2023/04/14 07:11:45;;;;;;;9.77;3.07;;;11.40;17.70;;;;;;5130179;27;21066;-75
2023/04/14 07:14:12;;;;;;;9.67;2.67;;;11.30;17.50;;;;;;5150973;27;20479;-71
2023/04/14 07:16:40;;;;;;;9.37;3.00;;;11.40;17.60;;;;;;5148492;27;20445;-72
2023/04/14 07:19:07;;;;;;;9.17;2.83;;;11.40;17.90;;;;;;5132632;27;20470;-71
2023/04/14 07:21:34;;;;;;;11.97;2.80;;;11.50;17.80;;;;;;5127594;27;20990;-71
2023/04/14 07:24:01;;;;;;;12.33;3.37;;;11.60;17.60;;;;;;5126464;27;20449;-71
2023/04/14 07:26:27;;;;;;;11.23;2.90;;;11.70;17.50;;;;;;5119409;27;20550;-71
2023/04/14 07:28:55;;;;;;;9.00;3.67;;;12.00;17.30;;;;;;5122258;27;20459;-71
2023/04/14 07:31:22;;;;;;;8.77;2.80;;;12.40;16.70;;;;;;5196708;22;20475;-71
2023/04/14 07:33:50;;;;;;;10.30;3.00;;;13.40;15.50;;;;;;5105261;27;20479;-70
2023/04/14 07:36:17;;;;;;;8.77;2.23;;;14.80;13.20;;;;;;5107923;27;20516;-70
2023/04/14 07:38:44;;;;;;;16.33;3.10;;;15.70;10.70;;;;;;5107042;27;20467;-70
2023/04/14 07:41:10;;;;;;;16.50;3.50;;;16.70;8.60;;;;;;5103232;27;21262;-71
2023/04/14 07:43:38;;;;;;;9.30;1.97;;;17.90;6.40;;;;;;5082927;28;20454;-70
2023/04/14 07:46:07;;;;;;;10.17;2.70;;;19.70;3.50;;;;;;5078249;28;20503;-71
2023/04/14 07:48:35;;;;;;;11.60;3.93;;;20.60;1.40;;;;;;5091621;28;20465;-71
2023/04/14 07:51:03;;;;;;;9.13;3.30;;;20.80;1.00;;;;;;5080668;28;20492;-74
2023/04/14 07:53:31;;;;;;;11.17;2.97;;;21.60;1.00;;;;;;5081163;28;20484;-74
2023/04/14 07:55:58;;;;;;;7.57;3.07;;;21.70;1.00;;;;;;5085981;28;20460;-74
2023/04/14 07:58:25;;;;;;;6.90;2.60;;;21.90;1.00;;;;;;5078545;28;20464;-72
2023/04/14 08:00:51;;;;;;;7.10;2.37;;;23.40;1.00;;;;;;5082954;28;20476;-75
2023/04/14 08:03:18;;;;;;;8.80;2.80;;;24.20;1.00;;;;;;5079443;28;20465;-75
2023/04/14 08:05:45;;;;;;;11.27;2.57;;;26.60;1.00;;;;;;5093882;28;20476;-75
2023/04/14 08:08:13;;;;;;;9.90;3.10;;;29.10;1.00;;;;;;5088644;28;20468;-75
2023/04/14 08:10:41;;;;;;;8.70;2.70;;;31.00;1.00;;;;;;5094100;28;20494;-76
2023/04/14 08:13:08;;;;;;;7.03;2.87;;;31.80;1.00;;;;;;5070514;28;20963;-74
2023/04/14 08:15:34;;;;;;;10.27;2.53;;;32.80;1.00;;;;;;5082751;28;20464;-76
2023/04/14 08:18:01;;;;;;;7.40;2.23;;;33.50;1.00;;;;;;5087082;28;20958;-72
2023/04/14 08:20:28;;;;;;;8.43;2.50;;;33.60;1.00;;;;;;5092419;28;20865;-74
2023/04/14 08:22:55;;;;;;;9.53;2.80;;;33.40;1.00;;;;;;5085180;28;20459;-71
2023/04/14 08:25:23;;;;;;;6.90;2.40;;;31.90;1.00;;;;;;5085278;28;20460;-71
2023/04/14 08:27:50;;;;;;;7.00;2.20;;;33.10;1.00;;;;;;5077193;28;20488;-72
2023/04/14 08:30:16;;;;;;;7.80;2.50;;;33.90;1.00;;;;;;5083933;28;20507;-71
2023/04/14 08:32:43;;;;;;;11.90;3.17;;;31.90;1.00;;;;;;5086349;28;20482;-71
2023/04/14 08:35:10;;;;;;;8.37;2.67;;;30.50;1.00;;;;;;5082341;28;20467;-71
2023/04/14 08:37:36;;;;;;;8.40;2.83;;;29.20;1.00;;;;;;5093241;28;20460;-71
2023/04/14 08:40:04;;;;;;;8.90;1.83;;;27.60;1.00;;;;;;5085703;28;20453;-70
2023/04/14 08:42:33;;;;;;;7.17;2.20;;;26.30;1.00;;;;;;5082927;28;20456;-72
2023/04/14 08:44:59;;;;;;;6.67;2.63;;;25.60;1.00;;;;;;5076106;28;20846;-72
2023/04/14 08:47:30;;;;;;;7.67;2.07;;;26.00;1.00;;;;;;5083630;28;20480;-70
2023/04/14 08:50:02;;;;;;;6.83;2.83;;;27.10;1.00;;;;;;5081596;28;20462;-73
2023/04/14 08:52:32;;;;;;;7.20;2.23;;;27.50;1.00;;;;;;5083980;28;20461;-72
2023/04/14 08:55:01;;;;;;;7.17;2.30;;;27.10;1.00;;;;;;5097138;28;20480;-73
2023/04/14 08:57:31;;;;;;;6.17;2.40;;;27.10;1.00;;;;;;5091949;28;20517;-71
2023/04/14 09:00:03;;;;;;;11.10;2.80;;;28.80;1.00;;;;;;5075212;28;20464;-73
2023/04/14 09:02:31;;;;;;;6.63;1.93;;;29.00;1.00;;;;;;5069295;28;20473;-72
2023/04/14 09:04:59;;;;;;;8.27;2.30;;;28.20;1.00;;;;;;5089630;28;21054;-70
2023/04/14 09:07:27;;;;;;;7.70;2.47;;;27.80;1.00;;;;;;5085744;28;20956;-70
2023/04/14 09:09:55;;;;;;;6.90;1.60;;;27.40;1.00;;;;;;5083831;28;20461;-70
2023/04/14 09:12:25;;;;;;;8.53;2.63;;;26.70;1.00;;;;;;5080138;28;20473;-69
2023/04/14 09:14:52;;;;;;;6.33;2.13;;;26.10;1.00;;;;;;5075254;28;20487;-70
2023/04/14 09:17:20;;;;;;;8.00;2.83;;;26.00;1.00;;;;;;5079841;28;20460;-69
2023/04/14 09:19:48;;;;;;;7.07;1.90;;;27.00;1.00;;;;;;5081038;28;20458;-70
2023/04/14 09:22:15;;;;;;;7.20;1.90;;;26.70;1.00;;;;;;5082644;28;20478;-70
2023/04/14 09:24:42;;;;;;;6.53;2.20;;;26.30;1.00;;;;;;5083160;28;20471;-70
2023/04/14 09:27:09;;;;;;;8.00;2.30;;;24.90;1.00;;;;;;5090611;28;20464;-69
2023/04/14 09:29:37;;;;;;;7.60;2.20;;;23.60;1.00;;;;;;5094437;28;20456;-70
2023/04/14 09:32:04;;;;;;;8.50;2.17;;;22.60;1.00;;;;;;5085912;28;20480;-69
2023/04/14 09:34:32;;;;;;;9.50;2.47;;;21.60;1.00;;;;;;5083179;28;20571;-71
2023/04/14 09:37:02;;;;;;;10.90;2.90;;;20.70;1.00;;;;;;5075509;28;20452;-69
2023/04/14 09:39:29;;;;;;;8.53;2.30;;;19.90;1.00;;;;;;5082716;28;20464;-70
2023/04/14 09:41:56;;;;;;;8.50;2.07;;;19.20;1.00;;;;;;5088305;28;20555;-69
2023/04/14 09:44:22;;;;;;;8.40;2.13;;;18.80;1.00;;;;;;5085124;28;20452;-69
2023/04/14 09:47:03;;;;;;;10.53;2.57;;;20.20;1.00;;;;;;5075567;28;20457;-69
2023/04/14 09:49:32;;;;;;;8.30;2.07;;;21.00;1.00;;;;;;5071676;28;20519;-70
2023/04/14 09:52:04;;;;;;;9.77;1.93;;;21.60;1.00;;;;;;5074988;28;20480;-70
2023/04/14 09:54:30;;;;;;;5.97;1.50;;;23.40;1.00;;;;;;5081502;28;21220;-70
2023/04/14 09:56:57;;;;;;;9.40;1.93;;;25.50;1.00;;;;;;5072409;28;20467;-69
2023/04/14 09:59:32;;;;;;;8.90;1.83;;;28.30;1.00;;;;;;5077815;28;20982;-69
2023/04/14 10:02:00;;;;;;;7.33;1.83;;;29.30;1.00;;;;;;5076013;28;20489;-70
2023/04/14 10:04:27;;;;;;;6.70;2.10;;;27.50;1.00;;;;;;5074044;28;20514;-69
2023/04/14 10:06:57;;;;;;;7.80;2.00;;;25.60;1.00;;;;;;5095683;28;20877;-70
2023/04/14 10:09:26;;;;;;;7.80;1.83;;;26.20;1.00;;;;;;5086498;28;20467;-70
2023/04/14 10:12:10;;;;;;;8.70;2.13;;;28.50;1.00;;;;;;5072141;28;20480;-70
2023/04/14 10:14:38;;;;;;;10.80;2.03;;;28.10;1.00;;;;;;5079290;28;20534;-69
2023/04/14 10:17:05;;;;;;;6.30;1.70;;;27.90;1.00;;;;;;5085740;28;20872;-69
2023/04/14 10:19:33;;;;;;;8.73;2.17;;;26.80;1.00;;;;;;5071165;28;20471;-71
2023/04/14 10:22:01;;;;;;;10.53;2.50;;;25.50;1.00;;;;;;5084988;28;20844;-69
2023/04/14 10:24:29;;;;;;;6.87;1.90;;;25.00;1.00;;;;;;5096984;28;23545;-70
2023/04/14 10:26:56;;;;;;;6.67;2.10;;;24.10;1.00;;;;;;5109153;28;20459;-71
2023/04/14 10:29:23;;;;;;;7.30;2.40;;;23.30;1.00;;;;;;5083731;28;20675;-69
2023/04/14 10:31:55;;;;;;;6.97;2.00;;;22.70;1.00;;;;;;5077639;28;20492;-69
2023/04/14 10:34:22;;;;;;;7.50;2.13;;;22.10;1.00;;;;;;5087002;28;20479;-69
2023/04/14 10:36:49;;;;;;;8.23;2.40;;;22.30;1.00;;;;;;5087159;28;20513;-69
2023/04/14 10:39:23;;;;;;;9.83;1.73;;;22.00;1.00;;;;;;5089252;28;20944;-70
2023/04/14 10:41:51;;;;;;;6.23;1.53;;;22.70;1.00;;;;;;5083263;28;20550;-70
2023/04/14 10:44:26;;;;;;;7.03;2.13;;;22.10;1.00;;;;;;5081421;28;20543;-70
2023/04/14 10:46:55;;;;;;;7.60;1.80;;;21.40;1.00;;;;;;5084685;28;21757;-69
2023/04/14 10:49:28;;;;;;;8.53;3.43;;;20.90;1.00;;;;;;5088756;28;20456;-70
2023/04/14 10:51:57;;;;;;;7.70;2.20;;;20.40;1.00;;;;;;5090020;28;20476;-70
2023/04/14 10:54:26;;;;;;;6.53;1.60;;;19.90;1.00;;;;;;5069340;28;20498;-70
2023/04/14 10:57:09;;;;;;;6.00;1.73;;;19.70;1.00;;;;;;5076912;28;20468;-67
2023/04/14 10:59:40;;;;;;;5.70;2.23;;;19.50;1.00;;;;;;5080221;28;20484;-68
2023/04/14 11:02:22;;;;;;;12.53;2.47;;;19.10;1.00;;;;;;5080481;28;20499;-69
2023/04/14 11:05:03;;;;;;;7.77;1.90;;;18.70;1.00;;;;;;5084777;28;20544;-69
2023/04/14 11:07:31;;;;;;;7.80;2.00;;;18.40;1.00;;;;;;5081047;28;20480;-70
2023/04/14 11:10:03;;;;;;;6.50;1.77;;;18.20;1.00;;;;;;5079862;28;20945;-69
2023/04/14 11:12:30;;;;;;;5.73;1.90;;;18.10;1.00;;;;;;5073937;28;20472;-71
2023/04/14 11:15:02;;;;;;;7.97;2.00;;;18.10;1.00;;;;;;5078859;28;20473;-67
2023/04/14 11:17:31;;;;;;;8.93;2.53;;;18.20;1.00;;;;;;5083881;28;20497;-67
2023/04/14 11:19:58;;;;;;;4.63;1.50;;;18.30;1.00;;;;;;5076734;28;20457;-67
2023/04/14 11:22:38;;;;;;;7.80;2.10;;;18.20;1.00;;;;;;5089582;28;20465;-67
2023/04/14 11:25:08;;;;;;;5.60;1.80;;;18.10;1.00;;;;;;5077415;28;20855;-66
2023/04/14 11:27:35;;;;;;;5.67;1.40;;;18.00;1.00;;;;;;5079512;28;20494;-67
2023/04/14 11:30:02;;;;;;;6.00;2.00;;;17.80;1.00;;;;;;5086261;28;20539;-68
2023/04/14 11:32:29;;;;;;;7.13;1.60;;;17.70;1.00;;;;;;5088730;28;20475;-67
2023/04/14 11:35:07;;;;;;;8.20;2.33;;;17.70;1.00;;;;;;5086362;28;20541;-67
2023/04/14 11:37:35;;;;;;;7.73;2.53;;;17.70;1.00;;;;;;5077165;28;20456;-67
2023/04/14 11:40:04;;;;;;;7.83;2.50;;;17.60;1.00;;;;;;5073555;28;20460;-67
2023/04/14 11:42:33;;;;;;;9.90;2.30;;;17.70;1.00;;;;;;5073188;28;20550;-67
2023/04/14 11:45:00;;;;;;;6.93;2.20;;;17.70;1.00;;;;;;5070235;28;20954;-67
2023/04/14 11:47:27;;;;;;;5.87;1.50;;;17.80;1.00;;;;;;5074476;28;20467;-67
2023/04/14 11:49:55;;;;;;;7.03;1.90;;;17.90;1.00;;;;;;5074365;28;20466;-67
2023/04/14 11:52:22;;;;;;;7.83;2.03;;;17.90;1.00;;;;;;5079189;28;20456;-67
2023/04/14 11:54:49;;;;;;;6.80;2.00;;;18.10;1.00;;;;;;5084063;28;20485;-67
2023/04/14 11:57:17;;;;;;;6.13;1.67;;;18.20;1.00;;;;;;5083509;28;20457;-67
2023/04/14 11:59:47;;;;;;;7.00;1.90;;;18.20;1.00;;;;;;5079276;28;20456;-67
2023/04/14 12:02:17;;;;;;;6.87;1.97;;;18.20;1.00;;;;;;5077148;28;20480;-68
2023/04/14 12:04:45;;;;;;;6.20;1.63;;;18.00;1.00;;;;;;5076987;28;21167;-67
2023/04/14 12:07:13;;;;;;;5.70;1.93;;;18.00;1.00;;;;;;5081467;28;21003;-67
2023/04/14 12:09:41;;;;;;;5.60;1.63;;;18.00;1.00;;;;;;5078413;28;20472;-67
2023/04/14 12:12:10;;;;;;;6.77;1.93;;;18.10;1.00;;;;;;5078859;28;20488;-67
2023/04/14 12:14:38;;;;;;;6.53;1.80;;;18.00;1.00;;;;;;5078830;28;20476;-67
2023/04/14 12:17:07;;;;;;;5.87;1.50;;;17.90;1.00;;;;;;5087968;28;20545;-67
2023/04/14 12:19:35;;;;;;;5.70;1.93;;;17.80;1.00;;;;;;5078642;28;22363;-66
2023/04/14 12:22:02;;;;;;;5.97;1.37;;;17.80;1.00;;;;;;5076074;28;20488;-67
2023/04/14 12:24:37;;;;;;;6.13;1.43;;;17.80;1.00;;;;;;5082123;28;20449;-67
2023/04/14 12:27:05;;;;;;;5.73;1.90;;;17.80;1.00;;;;;;5086924;28;20876;-67
2023/04/14 12:29:32;;;;;;;4.60;0.93;;;17.90;1.00;;;;;;5079252;28;20466;-68
2023/04/14 12:31:59;;;;;;;6.00;1.30;;;17.90;1.00;;;;;;5088329;28;20468;-67
2023/04/14 12:34:28;;;;;;;7.90;1.30;;;18.00;1.00;;;;;;5082355;28;20679;-67
2023/04/14 12:36:55;;;;;;;7.03;1.27;;;17.90;1.00;;;;;;5083001;28;20467;-68
2023/04/14 12:39:24;;;;;;;4.63;0.87;;;17.90;1.00;;;;;;5087658;28;20465;-68
2023/04/14 12:41:52;;;;;;;6.57;1.10;;;17.90;1.00;;;;;;5083257;28;20480;-69
2023/04/14 12:44:20;;;;;;;7.23;1.70;;;17.90;1.00;;;;;;5075496;28;20449;-68
2023/04/14 12:46:48;;;;;;;9.73;1.37;;;17.90;1.00;;;;;;5085498;28;20495;-67
2023/04/14 12:49:37;;;;;;;6.17;1.30;;;17.80;1.00;;;;;;5083730;28;20457;-69
2023/04/14 12:52:06;;;;;;;4.67;1.07;;;17.70;1.00;;;;;;5083245;28;20634;-68
2023/04/14 12:54:46;;;;;;;5.70;1.10;;;17.70;1.00;;;;;;5075253;28;20481;-68
2023/04/14 12:57:13;;;;;;;4.83;1.03;;;17.70;1.00;;;;;;5084657;28;20553;-67
2023/04/14 12:59:40;;;;;;;5.60;1.53;;;17.70;1.00;;;;;;5079563;28;20461;-68
2023/04/14 13:02:07;;;;;;;7.00;1.57;;;17.70;1.00;;;;;;5087160;28;20806;-68
2023/04/14 13:04:35;;;;;;;8.40;2.40;;;17.70;1.00;;;;;;5082623;28;20498;-68
2023/04/14 13:07:02;;;;;;;6.10;1.77;;;17.60;1.00;;;;;;5079676;28;20459;-68